createdAt,value
2022-12-23T00:00:18.740Z,98044.66
2022-12-23T00:02:47.043Z,98048.78
2022-12-23T00:05:17.147Z,98054.09
2022-12-23T00:07:45.658Z,98056.00
2022-12-23T00:10:13.947Z,98056.81
2022-12-23T00:12:59.475Z,98041.22
2022-12-23T00:15:27.457Z,98047.28
2022-12-23T00:17:56.571Z,98050.38
2022-12-23T00:20:26.147Z,98046.16
2022-12-23T00:23:06.522Z,98050.13
2022-12-23T00:25:44.972Z,98041.72
2022-12-23T00:28:15.010Z,98041.22
2022-12-23T00:30:47.047Z,98049.59
2022-12-23T00:33:15.171Z,98043.06
2022-12-23T00:35:44.674Z,98033.16
2022-12-23T00:38:12.972Z,98028.13
2022-12-23T00:40:58.434Z,98018.00
2022-12-23T00:43:26.475Z,98013.78
2022-12-23T00:45:54.450Z,98014.03
2022-12-23T00:48:36.322Z,98023.19
2022-12-23T00:51:05.994Z,98009.13
2022-12-23T00:53:34.054Z,97986.44
2022-12-23T00:56:01.985Z,98002.63
2022-12-23T00:58:32.016Z,98011.75
2022-12-23T01:01:16.576Z,98007.06
2022-12-23T01:04:01.893Z,97997.56
2022-12-23T01:06:31.502Z,97996.06
2022-12-23T01:08:59.385Z,97993.28
2022-12-23T01:11:27.557Z,97994.03
2022-12-23T01:13:55.684Z,97988.97
2022-12-23T01:16:23.614Z,97982.03
2022-12-23T01:18:51.653Z,97985.41
2022-12-23T01:21:19.645Z,97998.75
2022-12-23T01:23:49.003Z,98001.97
2022-12-23T01:26:17.024Z,98002.72
2022-12-23T01:28:45.065Z,98004.38
2022-12-23T01:31:13.147Z,98001.44
2022-12-23T01:33:41.226Z,98007.00
2022-12-23T01:36:09.955Z,98012.22
2022-12-23T01:38:38.023Z,97994.59
2022-12-23T01:41:07.489Z,97991.50
2022-12-23T01:43:45.274Z,97995.97
2022-12-23T01:46:13.309Z,98005.41
2022-12-23T01:48:43.206Z,98007.31
2022-12-23T01:51:13.902Z,98004.75
2022-12-23T01:53:44.511Z,97989.13
2022-12-23T01:56:16.086Z,97990.56
2022-12-23T01:58:46.099Z,97994.44
2022-12-23T02:01:31.788Z,97978.72
2022-12-23T02:04:01.795Z,97975.34
2022-12-23T02:06:48.752Z,97983.66
2022-12-23T02:09:20.139Z,97975.41
2022-12-23T02:12:02.296Z,97967.47
2022-12-23T02:14:52.213Z,97970.88
2022-12-23T02:17:22.879Z,97967.81
2022-12-23T02:20:10.778Z,97971.56
2022-12-23T02:22:51.346Z,97964.78
2022-12-23T02:25:36.968Z,97971.38
2022-12-23T02:28:19.286Z,97964.00
2022-12-23T02:30:50.400Z,97958.53
2022-12-23T02:33:27.278Z,97955.34
2022-12-23T02:35:59.164Z,97966.84
2022-12-23T02:38:31.625Z,97974.78
2022-12-23T02:41:05.712Z,97979.47
2022-12-23T02:43:40.636Z,97977.09
2022-12-23T02:46:13.033Z,97972.25
2022-12-23T02:48:44.223Z,97963.38
2022-12-23T02:51:15.077Z,97965.25
2022-12-23T02:53:44.527Z,97957.56
2022-12-23T02:56:13.542Z,97962.63
2022-12-23T02:58:45.723Z,97956.72
2022-12-23T03:01:17.322Z,97967.00
2022-12-23T03:03:46.227Z,97972.41
2022-12-23T03:06:18.971Z,97970.09
2022-12-23T03:08:47.133Z,97971.44
2022-12-23T03:11:16.184Z,97967.97
2022-12-23T03:13:50.555Z,97972.72
2022-12-23T03:16:24.060Z,97963.84
2022-12-23T03:18:58.558Z,97973.19
2022-12-23T03:21:31.763Z,97974.22
2022-12-23T03:24:07.251Z,97979.47
2022-12-23T03:26:37.821Z,97978.91
2022-12-23T03:29:10.630Z,97977.94
2022-12-23T03:31:40.949Z,97974.78
2022-12-23T03:34:11.827Z,97984.22
2022-12-23T03:36:41.512Z,97979.53
2022-12-23T03:39:12.063Z,97982.72
2022-12-23T03:41:42.654Z,97987.41
2022-12-23T03:44:13.503Z,97989.72
2022-12-23T03:46:47.074Z,97988.13
2022-12-23T03:49:17.439Z,97994.13
2022-12-23T03:51:50.381Z,97987.88
2022-12-23T03:54:20.601Z,97984.31
2022-12-23T03:56:52.885Z,97982.78
2022-12-23T03:59:22.611Z,97985.00
2022-12-23T04:01:56.572Z,97979.06
2022-12-23T04:04:27.844Z,97979.56
2022-12-23T04:06:58.495Z,97976.44
2022-12-23T04:09:28.207Z,97972.59
2022-12-23T04:11:56.780Z,97974.69
2022-12-23T04:14:26.283Z,97971.06
2022-12-23T04:16:57.429Z,97968.38
2022-12-23T04:19:25.888Z,97962.41
2022-12-23T04:21:54.657Z,97977.25
2022-12-23T04:24:22.851Z,97971.56
2022-12-23T04:26:50.789Z,97978.13
2022-12-23T04:29:18.835Z,97966.84
2022-12-23T04:31:47.100Z,97969.25
2022-12-23T04:34:16.616Z,97965.59
2022-12-23T04:36:44.682Z,97965.13
2022-12-23T04:39:12.888Z,97974.06
2022-12-23T04:41:40.903Z,97975.91
2022-12-23T04:44:09.265Z,97977.41
2022-12-23T04:46:37.419Z,97969.38
2022-12-23T04:49:05.733Z,97974.91
2022-12-23T04:51:35.366Z,97970.50
2022-12-23T04:54:03.369Z,97970.19
2022-12-23T04:56:31.456Z,97958.81
2022-12-23T04:59:02.002Z,97960.66
2022-12-23T05:01:30.255Z,97954.47
2022-12-23T05:03:58.493Z,97951.59
2022-12-23T05:06:26.458Z,97956.84
2022-12-23T05:08:55.882Z,97955.81
2022-12-23T05:11:23.801Z,97951.78
2022-12-23T05:13:51.788Z,97950.28
2022-12-23T05:16:20.077Z,97948.25
2022-12-23T05:18:48.245Z,97947.47
2022-12-23T05:21:16.746Z,97947.66
2022-12-23T05:23:45.156Z,97945.50
2022-12-23T05:26:14.724Z,97951.84
2022-12-23T05:28:43.195Z,97953.41
2022-12-23T05:31:11.902Z,97945.56
2022-12-23T05:33:40.414Z,97941.44
2022-12-23T05:36:08.924Z,97929.06
2022-12-23T05:38:37.044Z,97938.69
2022-12-23T05:41:05.543Z,97942.03
2022-12-23T05:43:35.136Z,97941.97
2022-12-23T05:46:03.283Z,97941.47
2022-12-23T05:48:31.387Z,97934.91
2022-12-23T05:50:59.540Z,97930.53
2022-12-23T05:53:28.014Z,97936.56
2022-12-23T05:55:56.058Z,97925.66
2022-12-23T05:58:24.170Z,97921.31
2022-12-23T06:00:54.138Z,97913.00
2022-12-23T06:03:22.555Z,97911.41
2022-12-23T06:05:51.456Z,97906.91
2022-12-23T06:08:19.627Z,97912.69
2022-12-23T06:10:48.143Z,97912.78
2022-12-23T06:13:16.103Z,97925.69
2022-12-23T06:15:44.133Z,97919.03
2022-12-23T06:18:13.523Z,97916.78
2022-12-23T06:20:41.475Z,97932.00
2022-12-23T06:23:09.516Z,97919.47
2022-12-23T06:25:37.745Z,97916.78
2022-12-23T06:28:07.747Z,97920.38
2022-12-23T06:30:36.061Z,97917.03
2022-12-23T06:33:04.144Z,97923.06
2022-12-23T06:35:33.631Z,97924.94
2022-12-23T06:38:01.721Z,97931.44
2022-12-23T06:40:30.433Z,97927.78
2022-12-23T06:42:58.384Z,97925.81
2022-12-23T06:45:26.623Z,97931.13
2022-12-23T06:47:54.949Z,97926.09
2022-12-23T06:50:23.082Z,97929.53
2022-12-23T06:52:52.652Z,97941.88
2022-12-23T06:55:20.647Z,97931.63
2022-12-23T06:57:48.738Z,97920.66
2022-12-23T07:00:17.547Z,97934.75
2022-12-23T07:02:45.550Z,97930.13
2022-12-23T07:05:13.787Z,97921.53
2022-12-23T07:07:41.915Z,97913.19
2022-12-23T07:10:11.968Z,97936.78
2022-12-23T07:12:46.007Z,97916.13
2022-12-23T07:15:17.085Z,97915.81
2022-12-23T07:17:45.153Z,97909.53
2022-12-23T07:20:14.881Z,97909.53
2022-12-23T07:22:42.879Z,97914.53
2022-12-23T07:25:12.421Z,97906.66
2022-12-23T07:27:42.005Z,97914.00
2022-12-23T07:30:10.552Z,97918.50
2022-12-23T07:32:38.739Z,97910.13
2022-12-23T07:35:07.137Z,97909.63
2022-12-23T07:37:35.181Z,97901.50
2022-12-23T07:40:08.291Z,97894.19
2022-12-23T07:42:47.010Z,97889.53
2022-12-23T07:45:15.640Z,97887.97
2022-12-23T07:47:43.849Z,97887.97
2022-12-23T07:50:12.185Z,97882.03
2022-12-23T07:52:40.218Z,97879.41
2022-12-23T07:55:08.765Z,97874.94
2022-12-23T07:57:38.724Z,97873.81
2022-12-23T08:00:08.476Z,97879.06
2022-12-23T08:02:37.112Z,97888.03
2022-12-23T08:05:05.472Z,97887.59
2022-12-23T08:07:33.848Z,97896.84
2022-12-23T08:10:01.903Z,97889.16
2022-12-23T08:12:30.581Z,97896.53
2022-12-23T08:15:00.337Z,97900.50
2022-12-23T08:17:28.859Z,97890.50
2022-12-23T08:19:57.098Z,97894.94
2022-12-23T08:22:25.645Z,97899.97
2022-12-23T08:24:53.756Z,97895.50
2022-12-23T08:27:21.784Z,97881.34
2022-12-23T08:29:49.812Z,97883.44
2022-12-23T08:32:19.282Z,97892.66
2022-12-23T08:34:47.302Z,97886.66
2022-12-23T08:37:15.288Z,97885.63
2022-12-23T08:39:43.962Z,97878.81
2022-12-23T08:42:11.954Z,97878.53
2022-12-23T08:44:40.074Z,97879.09
2022-12-23T08:47:08.053Z,97838.34
2022-12-23T08:49:37.801Z,97861.41
2022-12-23T08:52:06.022Z,97865.63
2022-12-23T08:54:34.135Z,97849.47
2022-12-23T08:57:02.073Z,97848.44
2022-12-23T08:59:30.244Z,97848.53
2022-12-23T09:01:59.962Z,97854.34
2022-12-23T09:04:28.215Z,97848.81
2022-12-23T09:06:57.642Z,97854.03
2022-12-23T09:09:25.626Z,97845.69
2022-12-23T09:11:53.789Z,97843.84
2022-12-23T09:14:21.837Z,97849.06
2022-12-23T09:16:52.102Z,97843.09
2022-12-23T09:19:20.682Z,97843.34
2022-12-23T09:21:48.628Z,97831.78
2022-12-23T09:24:18.020Z,97836.53
2022-12-23T09:26:46.129Z,97825.47
2022-12-23T09:29:14.176Z,97819.50
2022-12-23T09:31:42.314Z,97786.47
2022-12-23T09:34:11.739Z,97796.72
2022-12-23T09:36:40.039Z,97794.88
2022-12-23T09:39:07.995Z,97788.66
2022-12-23T09:41:48.900Z,97787.84
2022-12-23T09:44:26.289Z,97789.22
2022-12-23T09:46:56.320Z,97786.38
2022-12-23T09:49:25.430Z,97790.81
2022-12-23T09:51:56.031Z,97789.50
2022-12-23T09:54:29.180Z,97773.31
2022-12-23T09:57:00.275Z,97784.28
2022-12-23T09:59:35.874Z,97785.38
2022-12-23T10:02:11.197Z,97784.88
2022-12-23T10:04:43.544Z,97773.25
2022-12-23T10:07:33.016Z,97773.00
2022-12-23T10:10:04.929Z,97767.38
2022-12-23T10:12:40.543Z,97768.72
2022-12-23T10:15:17.963Z,97765.28
2022-12-23T10:17:47.304Z,97746.06
2022-12-23T10:20:19.456Z,97746.06
2022-12-23T10:22:47.902Z,97746.31
2022-12-23T10:25:17.341Z,97740.03
2022-12-23T10:27:46.936Z,97732.16
2022-12-23T10:30:42.408Z,97723.78
2022-12-23T10:33:05.567Z,97724.34
2022-12-23T10:35:51.323Z,97728.59
2022-12-23T10:38:29.295Z,97736.91
2022-12-23T10:41:08.790Z,97726.41
2022-12-23T10:43:42.775Z,97726.19
2022-12-23T10:46:18.894Z,97724.59
2022-12-23T10:48:52.994Z,97720.09
2022-12-23T10:51:22.672Z,97729.03
2022-12-23T10:53:53.404Z,97737.41
2022-12-23T10:56:22.182Z,97733.19
2022-12-23T10:58:52.661Z,97741.34
2022-12-23T11:01:26.697Z,97737.84
2022-12-23T11:04:03.123Z,97737.06
2022-12-23T11:06:37.123Z,97726.53
2022-12-23T11:09:06.678Z,97716.31
2022-12-23T11:11:54.193Z,97717.81
2022-12-23T11:14:32.369Z,97717.03
2022-12-23T11:17:00.496Z,97712.56
2022-12-23T11:19:28.486Z,97718.06
2022-12-23T11:21:57.839Z,97705.25
2022-12-23T11:24:26.707Z,97715.41
2022-12-23T11:27:01.362Z,97712.56
2022-12-23T11:29:30.738Z,97719.09
2022-12-23T11:32:00.513Z,97722.00
2022-12-23T11:34:32.109Z,97725.66
2022-12-23T11:37:06.998Z,97727.03
2022-12-23T11:39:36.734Z,97723.16
2022-12-23T11:42:07.258Z,97733.38
2022-12-23T11:44:37.363Z,97730.53
2022-12-23T11:47:20.574Z,97723.97
2022-12-23T11:49:49.724Z,97732.38
2022-12-23T11:52:19.458Z,97728.88
2022-12-23T11:54:54.405Z,97709.16
2022-12-23T11:57:34.615Z,97717.34
2022-12-23T12:00:04.026Z,97724.63
2022-12-23T12:02:36.886Z,97719.16
2022-12-23T12:05:07.299Z,97707.53
2022-12-23T12:07:35.515Z,97713.59
2022-12-23T12:10:03.831Z,97702.06
2022-12-23T12:12:31.957Z,97703.88
2022-12-23T12:15:01.102Z,97694.72
2022-12-23T12:17:32.620Z,97705.19
2022-12-23T12:20:05.917Z,97689.94
2022-12-23T12:22:37.604Z,97681.56
2022-12-23T12:25:11.783Z,97697.81
2022-12-23T12:27:42.929Z,97700.97
2022-12-23T12:30:15.537Z,97695.19
2022-12-23T12:32:47.986Z,97688.88
2022-12-23T12:35:19.639Z,97689.94
2022-12-23T12:37:50.117Z,97688.16
2022-12-23T12:40:25.454Z,97694.13
2022-12-23T12:42:57.985Z,97687.28
2022-12-23T12:48:33.811Z,97691.47
2022-12-23T12:51:05.849Z,97686.25
2022-12-23T12:53:34.930Z,97677.66
2022-12-23T12:56:08.656Z,97678.41
2022-12-23T12:58:36.744Z,97682.09
2022-12-23T13:01:15.990Z,97676.81
2022-12-23T13:04:05.688Z,97683.84
2022-12-23T13:06:40.027Z,97680.19
2022-12-23T13:09:14.517Z,97674.41
2022-12-23T13:11:46.318Z,97664.78
2022-12-23T13:14:21.905Z,97683.06
2022-12-23T13:16:55.038Z,97672.06
2022-12-23T13:19:27.183Z,97670.31
2022-12-23T13:22:01.729Z,97680.25
2022-12-23T13:24:33.585Z,97682.09
2022-12-23T13:27:07.267Z,97675.28
2022-12-23T13:29:58.221Z,97677.91
2022-12-23T13:32:41.600Z,97679.47
2022-12-23T13:35:18.909Z,97669.72
2022-12-23T13:37:52.812Z,97675.75
2022-12-23T13:40:27.697Z,97668.44
2022-12-23T13:42:57.112Z,97664.47
2022-12-23T13:45:29.044Z,97656.63
2022-12-23T13:48:05.074Z,97661.63
2022-12-23T13:50:37.336Z,97654.00
2022-12-23T13:53:15.018Z,97651.16
2022-12-23T13:55:49.548Z,97649.81
2022-12-23T13:58:19.465Z,97655.63
2022-12-23T14:00:50.666Z,97661.31
2022-12-23T14:03:20.468Z,97654.81
2022-12-23T14:05:50.848Z,97661.13
2022-12-23T14:08:25.313Z,97664.78
2022-12-23T14:10:55.039Z,97662.41
2022-12-23T14:13:25.213Z,97666.59
2022-12-23T14:16:04.059Z,97668.13
2022-12-23T14:18:37.699Z,97657.63
2022-12-23T14:21:11.006Z,97646.34
2022-12-23T14:23:50.258Z,97645.09
2022-12-23T14:26:24.372Z,97642.75
2022-12-23T14:29:01.543Z,97644.06
2022-12-23T14:31:34.934Z,97644.78
2022-12-23T14:34:07.636Z,97641.94
2022-12-23T14:36:35.689Z,97637.50
2022-12-23T14:39:22.747Z,97638.06
2022-12-23T14:41:53.091Z,97633.03
2022-12-23T14:44:22.152Z,97618.13
2022-12-23T14:46:54.870Z,97611.28
2022-12-23T14:49:40.831Z,97607.59
2022-12-23T14:52:27.828Z,97619.41
2022-12-23T14:55:28.646Z,97615.97
2022-12-23T14:57:45.799Z,97616.50
2022-12-23T15:00:14.483Z,97601.56
2022-12-23T15:02:42.996Z,97606.03
2022-12-23T15:05:11.406Z,97608.66
2022-12-23T15:07:40.076Z,97619.34
2022-12-23T15:10:10.060Z,97618.31
2022-12-23T15:12:40.109Z,97605.50
2022-12-23T15:15:15.327Z,97598.44
2022-12-23T15:17:43.787Z,97613.63
2022-12-23T15:20:17.276Z,97602.03
2022-12-23T15:22:46.507Z,97625.94
2022-12-23T15:25:21.436Z,97608.66
2022-12-23T15:27:50.129Z,97591.63
2022-12-23T15:30:20.151Z,97613.34
2022-12-23T15:32:49.371Z,97608.91
2022-12-23T15:35:20.314Z,97609.97
2022-12-23T15:37:49.751Z,97606.31
2022-12-23T15:40:25.559Z,97609.69
2022-12-23T15:42:53.766Z,97608.66
2022-12-23T15:45:33.221Z,97606.31
2022-12-23T15:48:01.712Z,97604.50
2022-12-23T15:50:30.345Z,97598.69
2022-12-23T15:53:03.698Z,97594.50
2022-12-23T15:55:32.600Z,97587.72
2022-12-23T15:58:01.461Z,97573.56
2022-12-23T16:00:32.646Z,97573.78
2022-12-23T16:03:04.666Z,97589.50
2022-12-23T16:05:37.274Z,97603.41
2022-12-23T16:08:12.425Z,97587.16
2022-12-23T16:10:40.962Z,97593.16
2022-12-23T16:13:17.554Z,97590.81
2022-12-23T16:15:46.141Z,97604.72
2022-12-23T16:18:21.274Z,97592.63
2022-12-23T16:20:50.852Z,97591.34
2022-12-23T16:23:19.304Z,97582.97
2022-12-23T16:25:50.334Z,97591.38
2022-12-23T16:28:23.176Z,97584.84
2022-12-23T16:30:53.428Z,97588.50
2022-12-23T16:33:29.341Z,97593.75
2022-12-23T16:35:58.082Z,97583.00
2022-12-23T16:38:27.406Z,97581.69
2022-12-23T16:40:56.296Z,97586.16
2022-12-23T16:43:25.411Z,97577.31
2022-12-23T16:45:54.326Z,97582.28
2022-12-23T16:48:27.051Z,97587.25
2022-12-23T16:50:56.654Z,97588.56
2022-12-23T16:53:24.755Z,97597.25
2022-12-23T16:55:59.997Z,97600.13
2022-12-23T16:58:28.922Z,97606.19
2022-12-23T17:00:57.109Z,97604.56
2022-12-23T17:03:25.174Z,97604.06
2022-12-23T17:05:53.225Z,97611.38
2022-12-23T17:08:22.654Z,97604.81
2022-12-23T17:10:50.797Z,97595.88
2022-12-23T17:13:19.710Z,97588.31
2022-12-23T17:15:47.814Z,97596.38
2022-12-23T17:18:20.795Z,97599.59
2022-12-23T17:20:50.276Z,97595.41
2022-12-23T17:23:25.564Z,97595.66
2022-12-23T17:25:53.761Z,97594.63
2022-12-23T17:28:21.984Z,97599.53
2022-12-23T17:30:52.170Z,97602.66
2022-12-23T17:33:20.747Z,97605.50
2022-12-23T17:35:49.144Z,97587.75
2022-12-23T17:38:18.000Z,97595.09
2022-12-23T17:40:48.150Z,97589.56
2022-12-23T17:43:17.142Z,97597.19
2022-12-23T17:45:45.614Z,97597.19
2022-12-23T17:48:20.584Z,97605.63
2022-12-23T17:50:50.685Z,97610.34
2022-12-23T17:53:19.411Z,97595.34
2022-12-23T17:55:48.856Z,97601.34
2022-12-23T17:58:17.082Z,97598.75
2022-12-23T18:00:45.312Z,97592.22
2022-12-23T18:03:21.359Z,97594.88
2022-12-23T18:05:49.417Z,97622.13
2022-12-23T18:08:18.026Z,97611.88
2022-12-23T18:10:46.652Z,97613.69
2022-12-23T18:13:18.478Z,97612.91
2022-12-23T18:15:46.960Z,97608.19
2022-12-23T18:18:22.020Z,97617.63
2022-12-23T18:20:56.247Z,97610.28
2022-12-23T18:23:26.045Z,97623.66
2022-12-23T18:25:54.107Z,97622.34
2022-12-23T18:28:23.631Z,97616.84
2022-12-23T18:30:52.012Z,97612.34
2022-12-23T18:33:20.012Z,97615.25
2022-12-23T18:35:48.669Z,97618.97
2022-12-23T18:38:17.284Z,97611.88
2022-12-23T18:40:45.780Z,97609.25
2022-12-23T18:43:18.571Z,97613.72
2022-12-23T18:45:52.692Z,97606.63
2022-12-23T18:48:21.916Z,97615.84
2022-12-23T18:50:50.047Z,97609.25
2022-12-23T18:53:23.726Z,97606.41
2022-12-23T18:55:52.931Z,97614.03
2022-12-23T18:58:21.244Z,97615.63
2022-12-23T19:00:52.763Z,97615.88
2022-12-23T19:03:23.183Z,97630.59
2022-12-23T19:05:51.224Z,97615.63
2022-12-23T19:08:25.841Z,97626.88
2022-12-23T19:10:55.048Z,97624.00
2022-12-23T19:16:19.751Z,97626.66
2022-12-23T19:18:48.382Z,97627.69
2022-12-23T19:21:16.485Z,97630.06
2022-12-23T19:23:44.673Z,97632.69
2022-12-23T19:26:13.943Z,97630.31
2022-12-23T19:28:42.889Z,97639.19
2022-12-23T19:31:11.841Z,97633.47
2022-12-23T19:33:42.663Z,97630.31
2022-12-23T19:36:11.430Z,97626.66
2022-12-23T19:38:39.634Z,97628.00
2022-12-23T19:41:08.609Z,97633.75
2022-12-23T19:43:36.956Z,97642.91
2022-12-23T19:46:06.062Z,97646.88
2022-12-23T19:48:34.697Z,97652.06
2022-12-23T19:51:05.352Z,97636.34
2022-12-23T19:53:33.347Z,97651.56
2022-12-23T19:56:02.452Z,97660.03
2022-12-23T19:58:33.322Z,97655.31
2022-12-23T20:01:08.662Z,97668.66
2022-12-23T20:03:37.098Z,97673.91
2022-12-23T20:06:07.996Z,97666.03
2022-12-23T20:08:36.126Z,97683.78
2022-12-23T20:11:05.368Z,97686.47
2022-12-23T20:13:33.489Z,97684.38
2022-12-23T20:16:01.630Z,97680.91
2022-12-23T20:18:31.793Z,97683.28
2022-12-23T20:21:01.062Z,97689.09
2022-12-23T20:23:30.714Z,97682.00
2022-12-23T20:25:58.767Z,97683.28
2022-12-23T20:28:26.805Z,97687.56
2022-12-23T20:31:09.013Z,97685.44
2022-12-23T20:33:37.531Z,97685.16
2022-12-23T20:36:07.429Z,97689.34
2022-12-23T20:38:37.153Z,97696.22
2022-12-23T20:41:05.548Z,97692.03
2022-12-23T20:43:34.888Z,97693.88
2022-12-23T20:46:03.207Z,97694.88
2022-12-23T20:48:34.045Z,97705.41
2022-12-23T20:51:06.499Z,97700.16
2022-12-23T20:53:34.678Z,97697.53
2022-12-23T20:56:04.496Z,97701.72
2022-12-23T20:58:49.967Z,97706.47
2022-12-23T21:01:18.062Z,97717.69
2022-12-23T21:03:46.147Z,97715.56
2022-12-23T21:06:14.189Z,97715.59
2022-12-23T21:08:43.437Z,97720.53
2022-12-23T21:11:12.872Z,97720.53
2022-12-23T21:13:40.973Z,97720.03
2022-12-23T21:16:10.320Z,97728.84
2022-12-23T21:18:40.816Z,97730.09
2022-12-23T21:21:08.830Z,97728.38
2022-12-23T21:23:40.315Z,97741.00
2022-12-23T21:26:14.087Z,97741.50
2022-12-23T21:28:42.661Z,97745.63
2022-12-23T21:31:11.237Z,97749.09
2022-12-23T21:33:40.420Z,97742.53
2022-12-23T21:36:09.281Z,97743.56
2022-12-23T21:38:38.458Z,97749.31
2022-12-23T21:41:08.477Z,97749.34
2022-12-23T21:43:38.137Z,97750.44
2022-12-23T21:46:08.131Z,97749.03
2022-12-23T21:48:37.094Z,97748.25
2022-12-23T21:51:07.764Z,97751.91
2022-12-23T21:53:35.966Z,97759.84
2022-12-23T21:56:04.913Z,97752.19
2022-12-23T21:58:33.281Z,97755.84
2022-12-23T22:01:07.001Z,97756.16
2022-12-23T22:03:35.322Z,97777.13
2022-12-23T22:06:10.215Z,97758.78
2022-12-23T22:08:39.054Z,97756.91
2022-12-23T22:11:07.597Z,97751.44
2022-12-23T22:13:35.581Z,97759.72
2022-12-23T22:16:05.560Z,97766.66
2022-12-23T22:18:33.726Z,97765.50
2022-12-23T22:21:05.391Z,97783.56
2022-12-23T22:23:33.559Z,97776.50
2022-12-23T22:26:01.603Z,97779.91
2022-12-23T22:28:31.652Z,97788.56
2022-12-23T22:31:02.334Z,97792.75
2022-12-23T22:33:32.507Z,97785.50
2022-12-23T22:36:00.856Z,97784.16
2022-12-23T22:38:29.063Z,97788.31
2022-12-23T22:40:57.156Z,97782.59
2022-12-23T22:43:25.092Z,97797.78
2022-12-23T22:45:56.696Z,97795.97
2022-12-23T22:48:24.928Z,97802.19
2022-12-23T22:51:02.307Z,97799.84
2022-12-23T22:53:30.375Z,97790.66
2022-12-23T22:55:58.987Z,97800.88
2022-12-23T22:58:27.281Z,97809.31
2022-12-23T23:00:58.309Z,97813.84
2022-12-23T23:03:26.738Z,97809.91
2022-12-23T23:06:00.382Z,97809.97
2022-12-23T23:08:28.787Z,97825.38
2022-12-23T23:10:57.629Z,97815.34
2022-12-23T23:13:25.940Z,97823.84
2022-12-23T23:15:54.714Z,97826.25
2022-12-23T23:18:22.734Z,97826.03
2022-12-23T23:20:51.026Z,97831.75
2022-12-23T23:23:20.435Z,97829.91
2022-12-23T23:25:48.710Z,97834.94
2022-12-23T23:28:16.974Z,97839.34
2022-12-23T23:30:45.028Z,97843.84
2022-12-23T23:33:13.170Z,97838.03
2022-12-23T23:35:41.538Z,97843.81
2022-12-23T23:38:09.718Z,97845.91
2022-12-23T23:40:39.196Z,97852.97
2022-12-23T23:43:07.090Z,97849.78
2022-12-23T23:45:35.165Z,97853.75
2022-12-23T23:48:03.093Z,97848.53
2022-12-23T23:50:31.123Z,97848.81
2022-12-23T23:52:59.116Z,97847.81
2022-12-23T23:55:27.354Z,97850.09
2022-12-23T23:57:56.721Z,97845.06
